Castrignano del capo, Italy

2:45 AM CEST on May 29, 2015 (GMT +0200)
IPUGLIAM2 | | Change Station
CLOSE
Current Station
Personal Weather Station
Location: Morciano Di Leuca - Torre Vado, PUGLIA
Elevation: 427 ft
Nearby Weather Stations
Active Advisory: Wind

Elev 427 ft 39.85 °N, 18.31 °E | Updated 33 seconds ago

Clear
Clear
56.4 °F
Feels Like 56.4 °F
N
12.0
Wind Variable Wind from NNW
Gusts 17.0 mph

Today
High -- | Low -- °F
--% Chance of Precip.
Yesterday
High -- | Low -- °F
Precip. -- in
5:22 AM 8:06 PM
Waxing Gibbous, 79% visible
Pressure 29.95 in
Visibility -9999.0 miles
Clouds
Dew Point 49 °F
Humidity 76%
Rainfall 0.00 in
Snow Depth Not available.
UV Not available.
Pollen Not available.
Air Quality Not available.
Flu Activity Not available.
METAR LIBY 282355Z 32010KT CAVOK 14/07 Q1014 RMK SKC QUK / QUL / VIS MAR 20 KM VIS MAX 20 KM VIS MIN 9999

More Conditions Fewer Conditions

Pressure 29.95 in
Visibility -9999.0 miles
Clouds
Dew Point 49 °F
Humidity 76%
Rainfall 0.00 in
Snow Depth Not available.
UV Not available.
Pollen Not available.
Air Quality Not available.
Flu Activity Not available.
METAR LIBY 282355Z 32010KT CAVOK 14/07 Q1014 RMK SKC QUK / QUL / VIS MAR 20 KM VIS MAX 20 KM VIS MIN 9999

More Conditions Fewer Conditions

10-Day Weather Forecast

Almanac

Astronomy

May. 29, 2015 Rise Set
Actual Time
Civil Twilight
Nautical Twilight
Astronomical Twilight
Moon
Length of Visible Light
Length of Day
Tomorrow will be .
, % of the Moon is Illuminated

Today's Extremes

Country Highs Country Lows

Community

WunderPhotos

Upload Photos

1,825,100 photos uploaded!

WunderBlogs® & News

Nearby

Air Quality

  Air Quality AQ Index Pollutant
Not available.

Snow Depth

Station Depth Elevation

Earthquake Activity

City Distance Mag. Time & Date
Minimum magnitude displayed is 2.5.

Coastal Water Temperatures

Place Temperature

Stations

Nearby Weather Stations

Station Location Temp. Windchill Dew Point Humidity Wind Precip. Elev Updated Type